Weather History for Manistique, MI

Change the Weather History Date:

Wednesday, January 29, 2014

  Actual Average Record
Temperature  
Mean Temperature 12 °F -  
Max Temperature 26 °F 25 °F 42 °F (1950)
Min Temperature -2 °F 11 °F -15 °F (1951)
Degree Days  
Heating Degree Days 54    
Moisture  
Dew Point -2 °F    
Average Humidity 65    
Maximum Humidity 74    
Minimum Humidity 56    
Precipitation  
Precipitation 0.00 in - - ()
Sea Level Pressure  
Sea Level Pressure 29.83 in    
Wind  
Wind Speed 10 mph (SW)    
Max Wind Speed 28 mph    
Max Gust Speed 41 mph    
Visibility 9 miles    
Events Snow    
Averages and records for this station are not official NWS values.
T = Trace of Precipitation, MM = Missing Value Source: NWS Daily Summary

Daily Weather History Graph

Daily Weather History Graph

Search for Another Location

Airport:

Trip Planner

Search our weather history database for the weather conditions in past years. The results will help you decide how hot, cold, wet, or windy it might be!

Date:

Astronomy

Jan. 29, 2014 Rise Set
Actual Time 8:10 AM EST 5:45 PM EST
Civil Twilight 7:38 AM EST 6:18 PM EST
Nautical Twilight 7:02 AM EST 6:54 PM EST
Astronomical Twilight 6:27 AM EST 7:29 PM EST
Moon 6:47 AM EST (1/29) 4:45 PM EST (1/29)
Length of Visible Light 10h 39m
Length of Day
9h 35m
Waning Crescent, 2% of the Moon is Illuminated
Jan 29
Waning Crescent
Jan 30
New
Feb 6
First Quarter
Feb 14
Full
Feb 22
Last Quarter

Hourly Weather History & Observations

Time (EST) Temp. Windchill Dew Point Humidity Pressure Visibility Wind Dir Wind Speed Gust Speed Precip Events Conditions
12:14 AM -1.3 °F -19.6 °F -11.2 °F 63% 29.83 in 10.0 mi WSW 12.7 mph 20.7 mph N/A   Scattered Clouds
12:35 AM -1.7 °F -16.2 °F -10.7 °F 66% 29.83 in 10.0 mi WSW 8.1 mph 18.4 mph N/A   Mostly Cloudy
12:55 AM -1.7 °F -18.3 °F -10.5 °F 66% 29.83 in 5.0 mi WSW 10.4 mph 21.9 mph N/A   Haze
1:14 AM -1.8 °F -18.5 °F -9.6 °F 70% 29.83 in 5.0 mi WSW 10.4 mph 17.3 mph N/A   Haze
1:35 AM -2.2 °F -19.9 °F -8.9 °F 73% 29.82 in 7.0 mi WSW 11.5 mph 18.4 mph N/A   Overcast
1:55 AM -2.0 °F -18.7 °F -8.5 °F 74% 29.82 in 5.0 mi WSW 10.4 mph 18.4 mph N/A   Haze
2:14 AM -1.8 °F -17.5 °F -8.5 °F 73% 29.81 in 10.0 mi WSW 9.2 mph 16.1 mph N/A   Overcast
2:35 AM -1.8 °F -18.5 °F -9.2 °F 71% 29.81 in 10.0 mi WSW 10.4 mph 17.3 mph N/A   Mostly Cloudy
2:54 AM -1.7 °F -18.3 °F -9.4 °F 70% 29.81 in 10.0 mi WSW 10.4 mph 17.3 mph N/A   Overcast
3:14 AM -1.3 °F -19.6 °F -9.4 °F 69% 29.81 in 10.0 mi West 12.7 mph - N/A   Overcast
3:35 AM -1.3 °F -16.8 °F -8.5 °F 72% 29.80 in 10.0 mi WSW 9.2 mph 18.4 mph N/A   Overcast
3:54 AM -1.3 °F -18.7 °F -8.5 °F 72% 29.79 in 10.0 mi WSW 11.5 mph 16.1 mph N/A   Mostly Cloudy
4:14 AM -0.9 °F -17.4 °F -8.7 °F 70% 29.80 in 10.0 mi WSW 10.4 mph - N/A   Mostly Cloudy
4:35 AM -0.4 °F -14.7 °F -8.9 °F 67% 29.80 in 10.0 mi WSW 8.1 mph 16.1 mph N/A   Overcast
4:54 AM -0.4 °F -15.7 °F -8.9 °F 67% 29.80 in 10.0 mi WSW 9.2 mph - N/A   Overcast
5:15 AM -0.4 °F -15.7 °F -8.9 °F 67% 29.80 in 10.0 mi WSW 9.2 mph 17.3 mph N/A   Overcast
5:35 AM -0.4 °F -15.7 °F -8.7 °F 68% 29.80 in 10.0 mi WSW 9.2 mph - N/A   Overcast
5:54 AM -0.4 °F -14.7 °F -8.7 °F 68% 29.81 in 10.0 mi WSW 8.1 mph 18.4 mph N/A   Overcast
6:15 AM -0.4 °F -15.7 °F -8.5 °F 69% 29.81 in 10.0 mi WSW 9.2 mph - N/A   Overcast
6:34 AM -0.0 °F -13.0 °F -8.3 °F 68% 29.80 in 10.0 mi WSW 6.9 mph - N/A   Overcast
6:54 AM -0.0 °F -15.3 °F -8.1 °F 69% 29.80 in 10.0 mi WSW 9.2 mph - N/A   Overcast
7:15 AM -0.4 °F -13.4 °F -8.5 °F 69% 29.81 in 10.0 mi WSW 6.9 mph - N/A   Overcast
7:34 AM -0.4 °F -13.4 °F -8.5 °F 69% 29.82 in 10.0 mi WSW 6.9 mph - N/A   Overcast
7:54 AM -0.4 °F -12.0 °F -8.5 °F 69% 29.82 in 10.0 mi WSW 5.8 mph - N/A   Overcast
8:15 AM -0.4 °F -15.7 °F -8.5 °F 69% 29.83 in 10.0 mi WSW 9.2 mph - N/A   Overcast
8:34 AM 0.3 °F -14.8 °F -8.3 °F 67% 29.84 in 10.0 mi WSW 9.2 mph - N/A   Overcast
8:55 AM 0.9 °F -13.1 °F -7.8 °F 67% 29.85 in 10.0 mi WSW 8.1 mph - N/A   Overcast
9:15 AM 1.4 °F -14.5 °F -7.6 °F 66% 29.85 in 10.0 mi West 10.4 mph - N/A   Overcast
9:34 AM 1.8 °F -14.0 °F -7.6 °F 65% 29.86 in 10.0 mi West 10.4 mph - N/A   Overcast
9:55 AM 2.3 °F -13.4 °F -7.1 °F 65% 29.87 in 10.0 mi WSW 10.4 mph 16.1 mph N/A   Overcast
10:14 AM 2.5 °F -7.0 °F -7.1 °F 64% 29.87 in 10.0 mi WSW 4.6 mph - N/A   Overcast
10:34 AM 2.3 °F -8.8 °F -7.8 °F 63% 29.88 in 10.0 mi WSW 5.8 mph - N/A   Scattered Clouds
10:55 AM 4.1 °F -6.7 °F -7.6 °F 58% 29.88 in 10.0 mi SW 5.8 mph - N/A   Clear
11:14 AM 5.4 °F -6.5 °F -6.7 °F 58% 29.88 in 10.0 mi SW 6.9 mph - N/A   Clear
11:35 AM 5.7 °F -7.2 °F -6.7 °F 57% 29.88 in 10.0 mi WSW 8.1 mph - N/A   Clear
11:55 AM 6.3 °F -5.4 °F -5.8 °F 58% 29.89 in 10.0 mi WSW 6.9 mph - N/A   Clear
12:14 PM 6.8 °F -7.8 °F -5.4 °F 57% 29.88 in 10.0 mi SSW 10.4 mph - N/A   Clear
12:35 PM 7.0 °F -7.5 °F -4.9 °F 58% 29.88 in 10.0 mi SSW 10.4 mph - N/A   Clear
12:55 PM 8.6 °F -1.3 °F -4.4 °F 56% 29.87 in 10.0 mi SW 5.8 mph - N/A   Clear
1:14 PM 8.2 °F -0.3 °F -4.2 °F 57% 29.87 in 10.0 mi SW 4.6 mph - N/A   Clear
1:35 PM 9.0 °F 0.6 °F -3.6 °F 57% 29.88 in 10.0 mi WSW 4.6 mph - N/A   Clear
1:54 PM 9.3 °F -2.8 °F -2.7 °F 58% 29.88 in 10.0 mi SSW 8.1 mph - N/A   Clear
2:14 PM 9.5 °F -2.6 °F -1.5 °F 61% 29.88 in 10.0 mi SSW 8.1 mph - N/A   Clear
2:35 PM 10.2 °F -2.7 °F -1.5 °F 59% 29.88 in 10.0 mi SSW 9.2 mph - N/A   Clear
2:54 PM 11.1 °F -0.6 °F -1.5 °F 57% 29.88 in 10.0 mi SW 8.1 mph - N/A   Clear
3:15 PM 10.6 °F -3.8 °F -2.4 °F 56% 29.87 in 10.0 mi SW 11.5 mph 16.1 mph N/A   Clear
3:35 PM 10.9 °F -1.8 °F -2.2 °F 56% 29.86 in 10.0 mi SSW 9.2 mph - N/A   Clear
3:54 PM 10.9 °F 1.4 °F -1.1 °F 58% 29.87 in 10.0 mi SW 5.8 mph - N/A   Clear
4:15 PM 11.1 °F -1.6 °F -1.7 °F 57% 29.86 in 10.0 mi SSW 9.2 mph - N/A   Clear
4:16 PM 11.1 °F -1.6 °F -1.7 °F 57% 29.86 in 10.0 mi SSW 9.2 mph - N/A   Clear
5:57 PM 12.9 °F -0.9 °F 2.3 °F 63% 29.84 in 10.0 mi SSW 11.5 mph 16.1 mph N/A   Clear
6:04 PM 13.1 °F -0.7 °F 2.8 °F 64% 29.85 in 10.0 mi SW 11.5 mph 17.3 mph N/A   Clear
6:37 PM 13.1 °F 0.9 °F 3.0 °F 64% 29.84 in 10.0 mi SW 9.2 mph 17.3 mph N/A   Clear
6:54 PM 14.0 °F 2.0 °F 4.5 °F 66% 29.83 in 10.0 mi SW 9.2 mph - N/A   Clear
7:04 PM 14.9 °F 4.0 °F 5.9 °F 68% 29.84 in 10.0 mi SW 8.1 mph 16.1 mph N/A   Clear
7:37 PM 15.6 °F 3.2 °F 6.4 °F 67% 29.84 in 10.0 mi SW 10.4 mph 19.6 mph N/A   Clear
7:55 PM 16.3 °F 2.7 °F 7.2 °F 67% 29.84 in 10.0 mi SW 12.7 mph 21.9 mph N/A   Clear
8:14 PM 16.7 °F 3.2 °F 6.6 °F 65% 29.83 in 10.0 mi SW 12.7 mph 19.6 mph N/A   Scattered Clouds
8:35 PM 18.3 °F 4.6 °F 7.5 °F 63% 29.82 in 10.0 mi SW 13.8 mph 27.6 mph N/A   Mostly Cloudy
8:55 PM 19.9 °F 3.9 °F 10.2 °F 66% 29.81 in 5.0 mi SSW 20.7 mph 33.4 mph N/A   Haze
9:14 PM 20.7 °F 4.9 °F 11.7 °F 68% 29.81 in 4.0 mi SSW 20.7 mph 29.9 mph N/A   Haze
9:35 PM 21.4 °F 6.2 °F 12.9 °F 70% 29.79 in 3.0 mi SSW 19.6 mph 34.5 mph N/A   Haze
9:54 PM 22.1 °F 6.0 °F 14.0 °F 71% 29.80 in 3.0 mi SSW 23.0 mph 32.2 mph N/A Snow Light Snow
10:15 PM 22.1 °F 7.6 °F 13.3 °F 69% 29.80 in 4.0 mi SW 18.4 mph 31.1 mph N/A   Haze
10:35 PM 23.0 °F 7.6 °F 14.2 °F 69% 29.79 in 4.0 mi SSW 21.9 mph 36.8 mph N/A Snow Light Snow
10:54 PM 23.5 °F 9.4 °F 12.6 °F 63% 29.79 in 4.0 mi SW 18.4 mph 35.7 mph N/A Snow Light Snow
11:15 PM 23.5 °F 10.3 °F 13.8 °F 66% 29.77 in 5.0 mi SSW 16.1 mph 29.9 mph N/A   Haze
11:34 PM 25.2 °F 8.9 °F 17.4 °F 72% 29.76 in 2.5 mi SSW 27.6 mph 41.4 mph N/A Snow Light Snow
11:54 PM 26.1 °F 11.3 °F 18.3 °F 73% 29.75 in 3.0 mi SSW 23.0 mph 36.8 mph N/A Snow Light Snow